Time;durP1;ratioP1;P1;durP2;ratioP2;P2;SDS_P1;SDS_P2;PMS_P1;PMS_P2;Temp;Humidity;BMP_temperature;BMP_pressure;BME280_temperature;BME280_humidity;BME280_pressure;Samples;Min_cycle;Max_cycle;Signal;HPM_P1;HPM_P2
2023/01/09 00:00:00;;;;;;;17.65;8.57;;;;;;;;;;5097612;28;20041;-72
2023/01/09 00:02:27;;;;;;;14.60;7.72;;;;;;;;;;5115442;28;20391;-72
2023/01/09 00:04:53;;;;;;;16.67;8.25;;;;;;;;;;5115337;28;20033;-72
2023/01/09 00:07:19;;;;;;;17.65;8.82;;;;;;;;;;5114756;28;20031;-72
2023/01/09 00:09:46;;;;;;;16.08;7.80;;;;;;;;;;5097552;28;20031;-72
2023/01/09 00:12:12;;;;;;;19.20;8.60;;;;;;;;;;5115057;28;20019;-72
2023/01/09 00:14:38;;;;;;;5.05;2.80;;;;;;;;;;5115072;28;20488;-72
2023/01/09 00:17:05;;;;;;;5.63;2.03;;;;;;;;;;5115229;28;20054;-72
2023/01/09 00:19:31;;;;;;;5.28;1.90;;;;;;;;;;5114954;28;20028;-72
2023/01/09 00:21:57;;;;;;;6.45;2.92;;;;;;;;;;5115025;28;20012;-72
2023/01/09 00:24:24;;;;;;;5.65;2.80;;;;;;;;;;5114814;28;20023;-72
2023/01/09 00:26:50;;;;;;;5.38;2.65;;;;;;;;;;5114537;28;20064;-72
2023/01/09 00:29:16;;;;;;;6.72;2.90;;;;;;;;;;5115002;28;20403;-72
2023/01/09 00:31:42;;;;;;;6.60;4.20;;;;;;;;;;5114889;28;20469;-72
2023/01/09 00:34:09;;;;;;;7.07;3.70;;;;;;;;;;5114920;28;20035;-72
2023/01/09 00:36:35;;;;;;;4.75;2.50;;;;;;;;;;5114299;28;20026;-72
2023/01/09 00:39:02;;;;;;;6.55;2.30;;;;;;;;;;5114775;28;20032;-72
2023/01/09 00:41:37;;;;;;;8.98;5.03;;;;;;;;;;5114591;28;20038;-72
2023/01/09 00:44:17;;;;;;;7.35;3.28;;;;;;;;;;5114589;28;20506;-72
2023/01/09 00:46:45;;;;;;;3.85;2.35;;;;;;;;;;5114516;28;20387;-72
2023/01/09 00:49:13;;;;;;;6.88;2.55;;;;;;;;;;5114365;28;20449;-72
2023/01/09 00:51:40;;;;;;;4.55;2.05;;;;;;;;;;5114360;28;20089;-72
2023/01/09 00:54:07;;;;;;;4.88;2.20;;;;;;;;;;5114282;28;20495;-72
2023/01/09 00:56:35;;;;;;;5.80;3.50;;;;;;;;;;5114841;28;20036;-72
2023/01/09 00:59:02;;;;;;;7.07;3.38;;;;;;;;;;5114590;28;20031;-72
2023/01/09 01:01:28;;;;;;;5.80;2.10;;;;;;;;;;5096080;28;20035;-72
2023/01/09 01:03:54;;;;;;;5.78;2.22;;;;;;;;;;5114204;28;20023;-72
2023/01/09 01:09:06;;;;;;;8.00;1.42;;;;;;;;;;5113929;28;20046;-72
2023/01/09 01:11:33;;;;;;;11.50;1.60;;;;;;;;;;5113906;28;20015;-72
2023/01/09 01:13:59;;;;;;;5.15;1.85;;;;;;;;;;5114150;28;20019;-72
2023/01/09 01:16:26;;;;;;;7.50;1.85;;;;;;;;;;5114060;28;20028;-72
2023/01/09 01:18:52;;;;;;;7.10;1.90;;;;;;;;;;5114198;28;20024;-72
2023/01/09 01:21:18;;;;;;;5.28;2.15;;;;;;;;;;5113473;28;20484;-72
2023/01/09 01:23:45;;;;;;;7.13;1.95;;;;;;;;;;5114314;28;20015;-72
2023/01/09 01:26:14;;;;;;;4.50;1.63;;;;;;;;;;5114002;28;20023;-72
2023/01/09 01:28:41;;;;;;;6.57;2.10;;;;;;;;;;5093251;28;20032;-72
2023/01/09 01:31:08;;;;;;;5.40;1.90;;;;;;;;;;5093936;28;20020;-72
2023/01/09 01:33:34;;;;;;;6.20;1.50;;;;;;;;;;5092966;28;20391;-72
2023/01/09 01:36:05;;;;;;;9.02;1.90;;;;;;;;;;5093581;28;20089;-72
2023/01/09 01:38:31;;;;;;;3.83;1.60;;;;;;;;;;5093412;28;20036;-72
2023/01/09 01:40:58;;;;;;;9.80;2.22;;;;;;;;;;5092724;28;20047;-72
2023/01/09 01:43:25;;;;;;;6.07;1.88;;;;;;;;;;5092988;28;20502;-72
2023/01/09 01:45:51;;;;;;;4.20;1.58;;;;;;;;;;5093411;28;20020;-72
2023/01/09 01:48:21;;;;;;;5.40;1.67;;;;;;;;;;5092647;28;20062;-72
2023/01/09 01:50:50;;;;;;;9.55;1.92;;;;;;;;;;5093227;28;20030;-72
2023/01/09 01:53:26;;;;;;;11.23;2.40;;;;;;;;;;5093135;28;20387;-72
2023/01/09 01:56:11;;;;;;;8.57;2.17;;;;;;;;;;5092924;28;20526;-72
2023/01/09 01:58:45;;;;;;;8.38;1.73;;;;;;;;;;5092750;28;20022;-71
2023/01/09 02:01:12;;;;;;;6.53;1.75;;;;;;;;;;5093010;28;20028;-72
2023/01/09 02:03:39;;;;;;;9.85;2.35;;;;;;;;;;5091178;28;20080;-72
2023/01/09 02:06:06;;;;;;;16.00;2.03;;;;;;;;;;5092872;28;20034;-72
2023/01/09 02:08:32;;;;;;;20.77;2.53;;;;;;;;;;5092667;28;20086;-72
2023/01/09 02:10:59;;;;;;;18.88;2.22;;;;;;;;;;5092802;28;20027;-72
2023/01/09 02:13:26;;;;;;;13.13;2.05;;;;;;;;;;5092843;28;20028;-71
2023/01/09 02:15:52;;;;;;;13.02;3.17;;;;;;;;;;5092786;28;20040;-72
2023/01/09 02:18:31;;;;;;;21.30;3.58;;;;;;;;;;5092123;28;20022;-72
2023/01/09 02:20:59;;;;;;;19.10;3.40;;;;;;;;;;5092441;28;20035;-72
2023/01/09 02:23:31;;;;;;;11.30;1.83;;;;;;;;;;5092203;28;20392;-72
2023/01/09 02:26:01;;;;;;;19.63;2.45;;;;;;;;;;5106730;28;20020;-72
2023/01/09 02:28:30;;;;;;;21.10;2.20;;;;;;;;;;5112566;28;20042;-72
2023/01/09 02:31:01;;;;;;;22.13;2.20;;;;;;;;;;5112428;28;20049;-72
2023/01/09 02:33:27;;;;;;;18.08;2.28;;;;;;;;;;5112460;28;20031;-72
2023/01/09 02:36:12;;;;;;;16.90;2.65;;;;;;;;;;5113254;28;20023;-72
2023/01/09 02:38:39;;;;;;;17.02;2.13;;;;;;;;;;5112823;28;20028;-72
2023/01/09 02:41:12;;;;;;;17.83;1.92;;;;;;;;;;5112463;28;20053;-72
2023/01/09 02:43:40;;;;;;;19.55;2.40;;;;;;;;;;5112816;28;20023;-72
2023/01/09 02:46:15;;;;;;;16.52;2.40;;;;;;;;;;5111998;28;20018;-71
2023/01/09 02:48:42;;;;;;;19.83;2.88;;;;;;;;;;5112717;28;20035;-72
2023/01/09 02:51:35;;;;;;;16.70;1.98;;;;;;;;;;5113160;28;20020;-72
2023/01/09 02:54:05;;;;;;;18.50;2.63;;;;;;;;;;5114122;28;20042;-72
2023/01/09 02:56:43;;;;;;;8.50;1.63;;;;;;;;;;5116887;28;20019;-72
2023/01/09 02:59:31;;;;;;;17.80;2.78;;;;;;;;;;5116826;28;20391;-72
2023/01/09 03:02:16;;;;;;;19.50;2.13;;;;;;;;;;5116269;28;20038;-72
2023/01/09 03:04:53;;;;;;;17.65;1.85;;;;;;;;;;5098562;28;20038;-72
2023/01/09 03:07:22;;;;;;;13.48;2.55;;;;;;;;;;5116362;28;20492;-72
2023/01/09 03:09:50;;;;;;;13.75;2.33;;;;;;;;;;5116743;28;20034;-71
2023/01/09 03:12:17;;;;;;;16.40;1.58;;;;;;;;;;5116361;28;20020;-71
2023/01/09 03:14:46;;;;;;;2.25;0.73;;;;;;;;;;5116291;28;20095;-71
2023/01/09 03:17:14;;;;;;;3.65;0.73;;;;;;;;;;5115938;28;20028;-70
2023/01/09 03:19:42;;;;;;;9.48;1.35;;;;;;;;;;5116675;28;20031;-72
2023/01/09 03:22:08;;;;;;;4.57;0.60;;;;;;;;;;5115967;28;20023;-71
2023/01/09 03:24:34;;;;;;;5.15;0.80;;;;;;;;;;5115918;28;20028;-71
2023/01/09 03:27:01;;;;;;;4.40;0.77;;;;;;;;;;5116090;28;20020;-71
2023/01/09 03:29:27;;;;;;;4.25;0.70;;;;;;;;;;5115904;28;20031;-71
2023/01/09 03:31:53;;;;;;;4.65;0.75;;;;;;;;;;5115896;28;20032;-71
2023/01/09 03:34:20;;;;;;;3.40;0.93;;;;;;;;;;5116211;28;20088;-72
2023/01/09 03:36:46;;;;;;;5.65;0.98;;;;;;;;;;5115787;28;20023;-72
2023/01/09 03:39:12;;;;;;;3.55;1.00;;;;;;;;;;5115945;28;20051;-72
2023/01/09 03:41:39;;;;;;;2.72;0.75;;;;;;;;;;5115899;28;20029;-71
2023/01/09 03:44:05;;;;;;;4.00;0.90;;;;;;;;;;5097227;28;20101;-72
2023/01/09 03:46:31;;;;;;;3.47;0.70;;;;;;;;;;5115770;28;20409;-71
2023/01/09 03:48:58;;;;;;;5.30;0.77;;;;;;;;;;5115462;28;20039;-72
2023/01/09 03:51:24;;;;;;;4.35;0.60;;;;;;;;;;5115563;28;20020;-71
2023/01/09 03:53:50;;;;;;;5.57;0.90;;;;;;;;;;5115909;28;20028;-71
2023/01/09 03:56:17;;;;;;;4.43;1.00;;;;;;;;;;5097177;28;20028;-71
2023/01/09 03:58:43;;;;;;;5.93;1.33;;;;;;;;;;5114986;28;20399;-72
2023/01/09 04:01:11;;;;;;;7.90;1.20;;;;;;;;;;5115693;28;20020;-72
2023/01/09 04:03:38;;;;;;;9.32;1.30;;;;;;;;;;5114767;28;20023;-72
2023/01/09 04:06:05;;;;;;;7.20;1.45;;;;;;;;;;5115182;28;20042;-72
2023/01/09 04:08:31;;;;;;;10.13;2.90;;;;;;;;;;5115265;28;20039;-72
2023/01/09 04:10:58;;;;;;;6.40;1.77;;;;;;;;;;5115018;28;20399;-72
2023/01/09 04:13:24;;;;;;;7.68;1.50;;;;;;;;;;5115006;28;20031;-72
2023/01/09 04:15:50;;;;;;;7.38;1.40;;;;;;;;;;5115198;28;20046;-72
2023/01/09 04:18:16;;;;;;;7.93;1.67;;;;;;;;;;5096948;28;20026;-71
2023/01/09 04:20:46;;;;;;;8.00;1.70;;;;;;;;;;5115311;28;20027;-72
2023/01/09 04:23:12;;;;;;;4.10;1.25;;;;;;;;;;5114968;28;20034;-72
2023/01/09 04:25:39;;;;;;;10.27;1.35;;;;;;;;;;5114715;28;20019;-71
2023/01/09 04:28:05;;;;;;;13.65;1.80;;;;;;;;;;5114615;28;20038;-72
2023/01/09 04:30:32;;;;;;;9.82;1.70;;;;;;;;;;5115244;28;20026;-72
2023/01/09 04:32:58;;;;;;;12.80;1.83;;;;;;;;;;5114833;28;20420;-72
2023/01/09 04:35:24;;;;;;;11.93;1.70;;;;;;;;;;5114785;28;20035;-72
2023/01/09 04:37:50;;;;;;;12.82;2.30;;;;;;;;;;5114635;28;20532;-72
2023/01/09 04:40:17;;;;;;;15.77;2.30;;;;;;;;;;5114533;28;20040;-72
2023/01/09 04:42:43;;;;;;;9.98;2.15;;;;;;;;;;5114241;28;20034;-72
2023/01/09 04:45:11;;;;;;;13.88;1.75;;;;;;;;;;5114525;28;20105;-72
2023/01/09 04:47:37;;;;;;;16.15;2.47;;;;;;;;;;5096193;28;20024;-71
2023/01/09 04:50:04;;;;;;;14.48;2.00;;;;;;;;;;5114771;28;20041;-72
2023/01/09 04:52:30;;;;;;;17.05;2.50;;;;;;;;;;5114843;28;20030;-72
2023/01/09 04:54:56;;;;;;;9.82;2.03;;;;;;;;;;5114302;28;20046;-72
2023/01/09 04:57:23;;;;;;;9.30;1.48;;;;;;;;;;5095708;28;20019;-72
2023/01/09 04:59:49;;;;;;;9.88;1.63;;;;;;;;;;5114604;28;20038;-71
2023/01/09 05:02:15;;;;;;;14.05;1.95;;;;;;;;;;5114158;28;20011;-72
2023/01/09 05:04:42;;;;;;;8.35;2.50;;;;;;;;;;5114266;28;20027;-72
2023/01/09 05:07:08;;;;;;;10.05;2.05;;;;;;;;;;5114072;28;20016;-72
2023/01/09 05:09:35;;;;;;;10.68;2.15;;;;;;;;;;5095838;28;20047;-72
2023/01/09 05:12:01;;;;;;;12.18;1.92;;;;;;;;;;5113479;28;20522;-72
2023/01/09 05:14:27;;;;;;;8.90;2.65;;;;;;;;;;5112923;28;20477;-72
2023/01/09 05:16:54;;;;;;;10.80;1.80;;;;;;;;;;5095725;28;20099;-72
2023/01/09 05:19:20;;;;;;;6.70;1.83;;;;;;;;;;5095668;28;20495;-72
2023/01/09 05:21:46;;;;;;;13.65;2.10;;;;;;;;;;5114082;28;20050;-72
2023/01/09 05:24:13;;;;;;;11.70;2.20;;;;;;;;;;5114004;28;20439;-72
2023/01/09 05:26:39;;;;;;;12.00;2.67;;;;;;;;;;5113130;28;20026;-72
2023/01/09 05:29:05;;;;;;;11.77;2.25;;;;;;;;;;5113580;28;20403;-72
2023/01/09 05:31:32;;;;;;;10.52;2.15;;;;;;;;;;5113741;28;20022;-72
2023/01/09 05:33:59;;;;;;;13.50;2.30;;;;;;;;;;5113806;28;20027;-72
2023/01/09 05:36:26;;;;;;;16.50;2.03;;;;;;;;;;5113474;28;20023;-72
2023/01/09 05:38:52;;;;;;;11.88;2.20;;;;;;;;;;5113322;28;20541;-73
2023/01/09 05:41:18;;;;;;;10.68;2.45;;;;;;;;;;5113300;28;20031;-72
2023/01/09 05:43:45;;;;;;;17.50;2.10;;;;;;;;;;5113512;28;20380;-72
2023/01/09 05:46:11;;;;;;;20.85;2.83;;;;;;;;;;5113391;28;20506;-72
2023/01/09 05:48:37;;;;;;;14.40;1.92;;;;;;;;;;5113353;28;20042;-72
2023/01/09 05:51:04;;;;;;;15.20;2.38;;;;;;;;;;5113543;28;20058;-72
2023/01/09 05:53:30;;;;;;;13.43;2.53;;;;;;;;;;5113470;28;20016;-72
2023/01/09 05:55:56;;;;;;;14.23;2.65;;;;;;;;;;5112885;28;20016;-72
2023/01/09 05:58:23;;;;;;;14.40;2.55;;;;;;;;;;5095504;28;20028;-72
2023/01/09 06:00:49;;;;;;;11.77;2.55;;;;;;;;;;5113059;28;20411;-72
2023/01/09 06:03:15;;;;;;;18.95;3.08;;;;;;;;;;5095248;28;20027;-72
2023/01/09 06:05:42;;;;;;;20.27;2.45;;;;;;;;;;5112974;28;20030;-72
2023/01/09 06:08:08;;;;;;;11.82;2.10;;;;;;;;;;5112892;28;20031;-72
2023/01/09 06:10:34;;;;;;;14.65;2.20;;;;;;;;;;5112734;28;20030;-71
2023/01/09 06:13:01;;;;;;;22.73;3.25;;;;;;;;;;5112271;28;20032;-72
2023/01/09 06:15:27;;;;;;;13.32;2.58;;;;;;;;;;5112979;28;20026;-72
2023/01/09 06:17:54;;;;;;;20.20;2.67;;;;;;;;;;5113396;28;20023;-72
2023/01/09 06:20:20;;;;;;;15.35;2.65;;;;;;;;;;5094712;28;20026;-72
2023/01/09 06:22:46;;;;;;;23.65;4.28;;;;;;;;;;5112752;28;20026;-72
2023/01/09 06:25:13;;;;;;;25.15;4.28;;;;;;;;;;5112125;28;20034;-72
2023/01/09 06:27:39;;;;;;;26.50;3.13;;;;;;;;;;5112821;28;20019;-72
2023/01/09 06:30:06;;;;;;;19.73;2.80;;;;;;;;;;5112719;28;20476;-72
2023/01/09 06:32:32;;;;;;;18.23;2.67;;;;;;;;;;5112840;28;20376;-71
2023/01/09 06:34:58;;;;;;;20.30;3.10;;;;;;;;;;5112655;28;20024;-72
2023/01/09 06:37:24;;;;;;;26.42;3.75;;;;;;;;;;5094500;28;20027;-72
2023/01/09 06:39:52;;;;;;;21.95;3.30;;;;;;;;;;5112234;28;20391;-72
2023/01/09 06:42:19;;;;;;;21.10;3.35;;;;;;;;;;5112472;28;20030;-72
2023/01/09 06:44:45;;;;;;;21.83;2.92;;;;;;;;;;5112645;28;20020;-72
2023/01/09 06:47:12;;;;;;;23.38;3.53;;;;;;;;;;5112396;28;20027;-72
2023/01/09 06:49:38;;;;;;;23.50;3.30;;;;;;;;;;5094489;28;20134;-72
2023/01/09 06:52:06;;;;;;;26.83;3.75;;;;;;;;;;5112746;28;20030;-72
2023/01/09 06:54:34;;;;;;;18.48;3.92;;;;;;;;;;5112102;28;20054;-72
2023/01/09 06:57:00;;;;;;;20.27;4.00;;;;;;;;;;5094093;28;20028;-72
2023/01/09 06:59:27;;;;;;;20.10;3.75;;;;;;;;;;5112206;28;20023;-72
2023/01/09 07:01:53;;;;;;;17.80;3.28;;;;;;;;;;5112538;28;20031;-72
2023/01/09 07:04:20;;;;;;;23.27;3.53;;;;;;;;;;5112234;28;20024;-72
2023/01/09 07:06:47;;;;;;;30.27;5.38;;;;;;;;;;5112610;28;20020;-72
2023/01/09 07:09:14;;;;;;;17.95;4.05;;;;;;;;;;5112001;28;20038;-72
2023/01/09 07:11:40;;;;;;;27.83;5.00;;;;;;;;;;5112139;28;20425;-72
2023/01/09 07:14:07;;;;;;;21.05;4.15;;;;;;;;;;5109173;28;20024;-72
2023/01/09 07:16:33;;;;;;;23.92;4.30;;;;;;;;;;5111701;28;20027;-73
2023/01/09 07:18:59;;;;;;;22.83;5.75;;;;;;;;;;5105257;28;20020;-72
2023/01/09 07:21:26;;;;;;;47.70;20.33;;;;;;;;;;5110388;28;20484;-72
2023/01/09 07:23:52;;;;;;;26.23;7.40;;;;;;;;;;5092687;28;20026;-74
2023/01/09 07:26:22;;;;;;;26.17;10.07;;;;;;;;;;5092145;28;20576;-74
2023/01/09 07:28:48;;;;;;;33.88;11.15;;;;;;;;;;5087081;28;20040;-74
2023/01/09 07:31:15;;;;;;;17.73;3.55;;;;;;;;;;5087660;28;20020;-73
2023/01/09 07:33:41;;;;;;;26.52;4.60;;;;;;;;;;5101215;28;20538;-73
2023/01/09 07:36:07;;;;;;;22.55;6.80;;;;;;;;;;5104802;28;20034;-74
2023/01/09 07:38:34;;;;;;;27.13;6.55;;;;;;;;;;5110798;28;20492;-74
2023/01/09 07:41:00;;;;;;;23.98;7.25;;;;;;;;;;5114981;28;20040;-74
2023/01/09 07:43:26;;;;;;;24.40;6.60;;;;;;;;;;5115121;28;20019;-74
2023/01/09 07:45:53;;;;;;;42.97;20.77;;;;;;;;;;5114642;28;20035;-74
2023/01/09 07:48:19;;;;;;;17.85;2.65;;;;;;;;;;5114863;28;20028;-74
2023/01/09 07:50:45;;;;;;;69.65;24.35;;;;;;;;;;5109084;28;20035;-74
2023/01/09 07:53:12;;;;;;;52.38;27.45;;;;;;;;;;5113058;28;20421;-74
2023/01/09 07:55:38;;;;;;;23.67;6.80;;;;;;;;;;5114214;28;20031;-74
2023/01/09 07:58:04;;;;;;;11.20;2.60;;;;;;;;;;5113365;28;20035;-74
2023/01/09 08:00:30;;;;;;;13.73;3.03;;;;;;;;;;5114959;28;20024;-74
2023/01/09 08:02:57;;;;;;;13.20;6.63;;;;;;;;;;5113899;28;20385;-73
2023/01/09 08:05:23;;;;;;;122.53;36.47;;;;;;;;;;5114155;28;20022;-74
2023/01/09 08:07:50;;;;;;;104.22;32.05;;;;;;;;;;5114228;28;20036;-71
2023/01/09 08:10:19;;;;;;;43.13;12.48;;;;;;;;;;5114606;28;20037;-73
2023/01/09 08:12:46;;;;;;;17.02;4.25;;;;;;;;;;5112953;28;20030;-74
2023/01/09 08:15:13;;;;;;;17.60;4.40;;;;;;;;;;5117236;27;20484;-74
2023/01/09 08:17:40;;;;;;;25.85;7.97;;;;;;;;;;5114119;28;20034;-74
2023/01/09 08:20:07;;;;;;;35.25;10.40;;;;;;;;;;5113507;28;20045;-74
2023/01/09 08:22:33;;;;;;;12.48;2.78;;;;;;;;;;5114230;28;20076;-73
2023/01/09 08:25:00;;;;;;;31.95;6.70;;;;;;;;;;5113871;28;20039;-74
2023/01/09 08:27:26;;;;;;;10.85;2.60;;;;;;;;;;5113896;28;20365;-74
2023/01/09 08:29:52;;;;;;;14.82;4.15;;;;;;;;;;5114131;28;20032;-70
2023/01/09 08:32:19;;;;;;;19.67;5.38;;;;;;;;;;5094963;28;20034;-72
2023/01/09 08:34:45;;;;;;;17.00;5.15;;;;;;;;;;5113662;28;20037;-74
2023/01/09 08:37:11;;;;;;;18.30;5.63;;;;;;;;;;5113664;28;20012;-74
2023/01/09 08:39:37;;;;;;;17.77;4.35;;;;;;;;;;5113831;28;20054;-74
2023/01/09 08:47:34;;;;;;;8.63;2.70;;;;;;;;;;5113649;28;20488;-74
2023/01/09 08:50:00;;;;;;;5.22;1.20;;;;;;;;;;5113368;28;20039;-74
2023/01/09 08:52:29;;;;;;;9.82;1.65;;;;;;;;;;5113952;28;20034;-72
2023/01/09 08:54:56;;;;;;;4.05;1.35;;;;;;;;;;5113754;28;20019;-74
2023/01/09 08:57:22;;;;;;;4.35;1.73;;;;;;;;;;5113800;28;20032;-75
2023/01/09 08:59:48;;;;;;;7.50;1.13;;;;;;;;;;5113525;28;20011;-73
2023/01/09 09:02:15;;;;;;;3.63;1.20;;;;;;;;;;5113439;28;20451;-73
2023/01/09 09:04:42;;;;;;;7.43;1.42;;;;;;;;;;5112568;28;20016;-74
2023/01/09 09:07:08;;;;;;;11.10;3.78;;;;;;;;;;5113430;28;20031;-73
2023/01/09 09:09:34;;;;;;;5.85;1.52;;;;;;;;;;5113310;28;20039;-74
2023/01/09 09:12:01;;;;;;;7.20;1.48;;;;;;;;;;5113286;28;20019;-74
2023/01/09 09:17:12;;;;;;;9.50;2.40;;;;;;;;;;5113759;28;20023;-74
2023/01/09 09:19:41;;;;;;;7.05;1.73;;;;;;;;;;5113608;28;20031;-73
2023/01/09 09:22:07;;;;;;;7.53;1.38;;;;;;;;;;5113375;28;20034;-73
2023/01/09 09:24:33;;;;;;;8.82;1.95;;;;;;;;;;5092161;28;20031;-72
2023/01/09 09:27:00;;;;;;;13.68;4.15;;;;;;;;;;5112992;28;20020;-71
2023/01/09 09:29:26;;;;;;;16.60;4.20;;;;;;;;;;5077845;28;20035;-71
2023/01/09 09:31:52;;;;;;;11.82;2.63;;;;;;;;;;5113017;28;20022;-74
2023/01/09 09:34:19;;;;;;;19.33;9.15;;;;;;;;;;5112962;28;20028;-74
2023/01/09 09:36:45;;;;;;;10.95;4.68;;;;;;;;;;5112741;28;20035;-74
2023/01/09 09:39:11;;;;;;;9.27;2.60;;;;;;;;;;5112260;28;20387;-71
2023/01/09 09:44:45;;;;;;;5.97;1.15;;;;;;;;;;5112892;28;20377;-73
2023/01/09 09:47:30;;;;;;;5.90;0.70;;;;;;;;;;5112301;28;20015;-73
2023/01/09 09:50:16;;;;;;;3.90;0.77;;;;;;;;;;5112250;28;20051;-74
2023/01/09 09:52:49;;;;;;;4.25;1.05;;;;;;;;;;5112533;28;20026;-73
2023/01/09 09:55:18;;;;;;;4.40;1.45;;;;;;;;;;5112599;28;20029;-73
2023/01/09 09:57:46;;;;;;;5.63;2.35;;;;;;;;;;5112073;28;20490;-73
2023/01/09 10:00:17;;;;;;;5.82;1.27;;;;;;;;;;5114247;27;20034;-73
2023/01/09 10:03:01;;;;;;;2.92;0.93;;;;;;;;;;5112051;28;20020;-73
2023/01/09 10:05:40;;;;;;;2.90;1.00;;;;;;;;;;5111727;28;20034;-73
2023/01/09 10:08:15;;;;;;;1.38;0.68;;;;;;;;;;5112120;28;20043;-73
2023/01/09 10:10:47;;;;;;;1.38;0.80;;;;;;;;;;5094548;28;20029;-72
2023/01/09 10:16:21;;;;;;;3.30;1.25;;;;;;;;;;5111830;28;20422;-72
2023/01/09 10:19:03;;;;;;;2.30;1.20;;;;;;;;;;5112499;28;20026;-70
2023/01/09 10:21:35;;;;;;;1.73;1.00;;;;;;;;;;5112289;28;20023;-70
2023/01/09 10:24:14;;;;;;;1.83;0.50;;;;;;;;;;5112275;28;20031;-73
2023/01/09 10:26:48;;;;;;;1.55;0.57;;;;;;;;;;5111676;28;20425;-73
2023/01/09 10:29:36;;;;;;;2.22;1.40;;;;;;;;;;5111187;28;20035;-70
2023/01/09 10:32:21;;;;;;;2.08;1.00;;;;;;;;;;5111558;28;20034;-72
2023/01/09 10:35:11;;;;;;;2.05;0.80;;;;;;;;;;5112040;28;20376;-73
2023/01/09 10:37:39;;;;;;;1.77;0.60;;;;;;;;;;5009297;28;20042;-72
2023/01/09 10:40:32;;;;;;;1.63;0.85;;;;;;;;;;5009543;28;20550;-73
2023/01/09 10:43:33;;;;;;;0.82;0.50;;;;;;;;;;5006668;28;20045;-72
2023/01/09 10:46:03;;;;;;;2.80;0.98;;;;;;;;;;4950995;28;20035;-72
2023/01/09 10:48:33;;;;;;;3.22;2.08;;;;;;;;;;4950290;29;20058;-73
2023/01/09 10:51:00;;;;;;;1.05;0.60;;;;;;;;;;4951126;29;20027;-72
2023/01/09 10:53:28;;;;;;;2.03;0.80;;;;;;;;;;4950310;29;20031;-73
2023/01/09 10:55:57;;;;;;;2.63;0.88;;;;;;;;;;4951139;29;20039;-70
2023/01/09 10:58:23;;;;;;;2.08;0.80;;;;;;;;;;4951225;29;20035;-70
2023/01/09 11:00:50;;;;;;;2.70;1.05;;;;;;;;;;4949303;29;20042;-70
2023/01/09 11:03:24;;;;;;;6.88;1.83;;;;;;;;;;4967111;28;20057;-73
2023/01/09 11:05:54;;;;;;;5.53;2.50;;;;;;;;;;4949986;29;20089;-72
2023/01/09 11:08:23;;;;;;;39.10;26.57;;;;;;;;;;4950928;29;20039;-73
2023/01/09 11:10:51;;;;;;;21.63;12.27;;;;;;;;;;4950732;29;20188;-70
2023/01/09 11:13:28;;;;;;;4.88;1.92;;;;;;;;;;4953358;28;20480;-71
2023/01/09 11:16:00;;;;;;;9.95;2.88;;;;;;;;;;5012587;28;20037;-71
2023/01/09 11:18:27;;;;;;;8.63;3.13;;;;;;;;;;5013590;28;20018;-70
2023/01/09 11:20:53;;;;;;;13.10;6.47;;;;;;;;;;5085738;28;20036;-69
2023/01/09 11:23:23;;;;;;;7.55;1.92;;;;;;;;;;5095190;28;20469;-73
2023/01/09 11:25:53;;;;;;;17.80;6.47;;;;;;;;;;5107670;28;20563;-73
2023/01/09 11:28:20;;;;;;;7.78;2.75;;;;;;;;;;5115098;28;20401;-70
2023/01/09 11:30:55;;;;;;;10.68;3.85;;;;;;;;;;5115497;28;20035;-70
2023/01/09 11:33:23;;;;;;;9.80;5.70;;;;;;;;;;5115445;28;20510;-69
2023/01/09 11:36:01;;;;;;;8.75;3.22;;;;;;;;;;5115192;28;20034;-71
2023/01/09 11:38:27;;;;;;;6.45;1.75;;;;;;;;;;5115400;28;20035;-70
2023/01/09 11:40:59;;;;;;;3.15;1.08;;;;;;;;;;5115277;28;20051;-70
2023/01/09 11:43:29;;;;;;;3.60;1.17;;;;;;;;;;5114891;28;20498;-70
2023/01/09 11:45:57;;;;;;;5.30;1.85;;;;;;;;;;5115330;28;20030;-70
2023/01/09 11:48:28;;;;;;;3.95;1.50;;;;;;;;;;5115026;28;20084;-71
2023/01/09 11:50:55;;;;;;;5.60;1.90;;;;;;;;;;5114452;28;20024;-70
2023/01/09 11:53:22;;;;;;;5.95;1.77;;;;;;;;;;5114770;28;20491;-69
2023/01/09 11:56:15;;;;;;;4.78;1.30;;;;;;;;;;5115028;28;20032;-69
2023/01/09 11:58:42;;;;;;;17.35;5.30;;;;;;;;;;5111141;28;20426;-71
2023/01/09 12:01:35;;;;;;;11.68;4.25;;;;;;;;;;5115236;28;20146;-70
2023/01/09 12:04:01;;;;;;;4.72;1.67;;;;;;;;;;5115172;28;20015;-70
2023/01/09 12:06:46;;;;;;;5.05;2.67;;;;;;;;;;5114918;28;20476;-70
2023/01/09 12:09:20;;;;;;;4.18;1.80;;;;;;;;;;5114951;28;20031;-71
2023/01/09 12:11:56;;;;;;;6.93;3.50;;;;;;;;;;5114310;28;20076;-71
2023/01/09 12:14:30;;;;;;;11.60;4.63;;;;;;;;;;5114665;28;20032;-70
2023/01/09 12:17:03;;;;;;;2.83;1.63;;;;;;;;;;5079734;28;20039;-71
2023/01/09 12:19:31;;;;;;;3.05;1.10;;;;;;;;;;5114812;28;20028;-70
2023/01/09 12:21:57;;;;;;;1.83;0.75;;;;;;;;;;5114671;28;20475;-70
2023/01/09 12:24:42;;;;;;;1.05;0.60;;;;;;;;;;5113970;28;20024;-71
2023/01/09 12:27:21;;;;;;;1.17;0.80;;;;;;;;;;5114136;28;20016;-70
2023/01/09 12:29:50;;;;;;;0.80;0.73;;;;;;;;;;5114220;28;20035;-73
2023/01/09 12:32:26;;;;;;;0.52;0.52;;;;;;;;;;5114759;28;20020;-73
2023/01/09 12:34:53;;;;;;;1.65;0.50;;;;;;;;;;5114147;28;20030;-72
2023/01/09 12:37:36;;;;;;;2.03;0.60;;;;;;;;;;5113608;28;20023;-73
2023/01/09 12:40:02;;;;;;;2.25;1.05;;;;;;;;;;5111078;28;20031;-73
2023/01/09 12:42:28;;;;;;;2.33;1.00;;;;;;;;;;5113585;28;20027;-73
2023/01/09 12:44:59;;;;;;;1.73;1.20;;;;;;;;;;5113929;28;20072;-72
2023/01/09 12:47:31;;;;;;;3.88;1.88;;;;;;;;;;5113761;28;20027;-72
2023/01/09 12:50:07;;;;;;;3.08;1.90;;;;;;;;;;5099485;28;20043;-73
2023/01/09 12:52:36;;;;;;;3.65;1.40;;;;;;;;;;5111554;28;20016;-73
2023/01/09 12:55:12;;;;;;;5.28;1.50;;;;;;;;;;5113459;28;20020;-72
2023/01/09 12:57:41;;;;;;;5.95;3.40;;;;;;;;;;5113398;28;20020;-73
2023/01/09 13:00:26;;;;;;;2.50;1.42;;;;;;;;;;5113318;28;20028;-73
2023/01/09 13:02:59;;;;;;;2.95;1.73;;;;;;;;;;5110953;27;20033;-72
2023/01/09 13:05:44;;;;;;;2.40;1.38;;;;;;;;;;5113104;28;20035;-73
2023/01/09 13:08:19;;;;;;;17.58;10.40;;;;;;;;;;5111308;28;20045;-71
2023/01/09 13:10:48;;;;;;;9.57;5.63;;;;;;;;;;5113040;28;20034;-70
2023/01/09 13:13:18;;;;;;;6.45;2.42;;;;;;;;;;5113667;28;20042;-71
2023/01/09 13:15:50;;;;;;;7.32;2.78;;;;;;;;;;5112899;28;20022;-71
2023/01/09 13:18:28;;;;;;;8.38;2.40;;;;;;;;;;5113457;27;20024;-70
2023/01/09 13:20:55;;;;;;;8.48;3.65;;;;;;;;;;5133952;27;20023;-69
2023/01/09 13:23:42;;;;;;;13.63;5.22;;;;;;;;;;5125089;27;20430;-70
2023/01/09 13:26:11;;;;;;;14.77;5.85;;;;;;;;;;5033713;28;20063;-71
2023/01/09 13:28:45;;;;;;;13.02;4.82;;;;;;;;;;5031256;28;20506;-70
2023/01/09 13:31:24;;;;;;;7.00;2.92;;;;;;;;;;5013706;28;20049;-71
2023/01/09 13:33:53;;;;;;;5.57;3.03;;;;;;;;;;5030498;28;20035;-71
2023/01/09 13:36:39;;;;;;;6.00;3.00;;;;;;;;;;5028601;28;20055;-71
2023/01/09 13:39:06;;;;;;;6.35;2.30;;;;;;;;;;5029368;28;20104;-71
2023/01/09 13:44:17;;;;;;;15.50;7.82;;;;;;;;;;5029312;28;20053;-71
2023/01/09 13:46:50;;;;;;;8.18;4.20;;;;;;;;;;5029624;28;20028;-71
2023/01/09 13:49:31;;;;;;;5.95;3.00;;;;;;;;;;5028975;28;20375;-70
2023/01/09 13:52:01;;;;;;;5.95;3.22;;;;;;;;;;5029978;28;20024;-70
2023/01/09 13:54:46;;;;;;;4.67;1.50;;;;;;;;;;5029559;28;20038;-71
2023/01/09 13:57:12;;;;;;;6.60;2.65;;;;;;;;;;5029918;28;20062;-71
2023/01/09 13:59:39;;;;;;;5.93;2.10;;;;;;;;;;5029481;28;20474;-71
2023/01/09 14:02:28;;;;;;;4.47;1.38;;;;;;;;;;5030948;28;20029;-71
2023/01/09 14:04:55;;;;;;;6.40;3.13;;;;;;;;;;5092129;28;20250;-70
2023/01/09 14:07:22;;;;;;;5.90;1.77;;;;;;;;;;5092906;28;20028;-71
2023/01/09 14:09:52;;;;;;;2.65;1.10;;;;;;;;;;5103190;28;20039;-70
2023/01/09 14:12:19;;;;;;;2.75;1.35;;;;;;;;;;5093874;28;20027;-71
2023/01/09 14:14:47;;;;;;;4.80;1.70;;;;;;;;;;5112204;28;20492;-70
2023/01/09 14:17:18;;;;;;;3.83;0.90;;;;;;;;;;5112648;28;20024;-70
2023/01/09 14:19:44;;;;;;;3.10;0.85;;;;;;;;;;5111990;28;20026;-70
2023/01/09 14:22:24;;;;;;;5.30;1.10;;;;;;;;;;5112101;28;20023;-71
2023/01/09 14:24:52;;;;;;;4.88;1.00;;;;;;;;;;5111841;28;20388;-70
2023/01/09 14:27:37;;;;;;;4.32;1.10;;;;;;;;;;5111931;28;20053;-70
2023/01/09 14:30:17;;;;;;;4.22;1.38;;;;;;;;;;5111571;28;20040;-70
2023/01/09 14:32:44;;;;;;;2.88;1.40;;;;;;;;;;5112133;28;20024;-70
2023/01/09 14:35:14;;;;;;;7.45;1.50;;;;;;;;;;5112121;28;20027;-70
2023/01/09 14:37:41;;;;;;;2.30;1.10;;;;;;;;;;5111715;28;20026;-70
2023/01/09 14:40:15;;;;;;;5.35;1.80;;;;;;;;;;5111392;28;20046;-71
2023/01/09 14:42:41;;;;;;;5.32;0.80;;;;;;;;;;5112202;28;20027;-71
2023/01/09 14:45:19;;;;;;;2.00;0.80;;;;;;;;;;5111945;28;20034;-70
2023/01/09 14:47:52;;;;;;;4.40;1.17;;;;;;;;;;5117774;28;20472;-70
2023/01/09 14:50:32;;;;;;;4.28;1.08;;;;;;;;;;5117953;28;20084;-70
2023/01/09 14:52:59;;;;;;;4.38;1.05;;;;;;;;;;5118068;28;20110;-70
2023/01/09 14:55:31;;;;;;;1.52;0.63;;;;;;;;;;5118457;28;20031;-70
2023/01/09 14:58:09;;;;;;;2.33;0.77;;;;;;;;;;5117976;28;20503;-71
2023/01/09 15:00:36;;;;;;;1.90;0.80;;;;;;;;;;5118696;28;20036;-70
2023/01/09 15:03:02;;;;;;;1.65;0.77;;;;;;;;;;5118195;28;20476;-70
2023/01/09 15:05:31;;;;;;;1.88;0.80;;;;;;;;;;5100062;28;20076;-70
2023/01/09 15:08:00;;;;;;;2.63;1.00;;;;;;;;;;5099815;28;20024;-70